Caletta — ICNZ — position and weather

sailwx.info

Track history (hours):
 
Tides and Currents Weather Stations Pressure Air Temp Water Temp Dewpoint Dewpoint Depression Visibility Wind Speed Wind Dir Waves Ship Positions

Caletta

Last reported at 2016-Jun-21 20:33 UTC. Time now 2016-Jun-28 20:41 UTC.
Position N 29°43' W 093°52'.

Length 183 m; draft 7.7 m.

Type: Ship (hazmat cat A). MMSI: 247296300.

Date/timePositionNaut miles runAvg speedWind from/ knotsBaromVisibWave heightAir tempDewpointWater temp
2016-Jun-21 20:33N 29°43' W 093°52'10 0.8
2016-Jun-21 08:04N 29°35' W 093°44'0 0.1
2016-Jun-21 07:22N 29°35' W 093°44'0 0.0
2016-Jun-21 01:22N 29°35' W 093°44'0 0.0
2016-Jun-20 20:04N 29°35' W 093°44'0 0.1
2016-Jun-20 19:31N 29°35' W 093°44'0 0.0
2016-Jun-19 08:22N 29°35' W 093°44'0 0.0
2016-Jun-19 06:25N 29°35' W 093°44'0 0.0
2016-Jun-19 05:31N 29°35' W 093°44'0 0.0
2016-Jun-19 01:28N 29°35' W 093°44'0 0.1
2016-Jun-19 00:31N 29°35' W 093°44'0 0.1
2016-Jun-18 23:31N 29°35' W 093°44'0 0.0
2016-Jun-18 09:28N 29°35' W 093°44'0 0.0
2016-Jun-18 04:07N 29°35' W 093°44'0 0.0
2016-Jun-18 03:13N 29°35' W 093°44'0 0.0
2016-Jun-17 13:21N 29°35' W 093°44'0 0.0
2016-Jun-17 08:27N 29°35' W 093°44'0 0.0
2016-Jun-17 07:09N 29°35' W 093°44'0 0.0
2016-Jun-17 03:18N 29°35' W 093°44'0 0.0
2016-Jun-17 02:24N 29°35' W 093°44'0 0.0
2016-Jun-17 01:33N 29°35' W 093°44'0 0.0
2016-Jun-17 00:24N 29°35' W 093°44'0 0.0
2016-Jun-16 23:33N 29°35' W 093°44'0 0.0
2016-Jun-16 22:24N 29°35' W 093°44'3 3.6
2016-Jun-16 21:33N 29°32' W 093°45'1413.9
2016-Jun-16 20:33N 29°27' W 093°60'1414.3
2016-Jun-16 19:33N 29°17' W 094°12'1414.1
2016-Jun-16 18:33N 29°09' W 094°25'1513.6
2016-Jun-16 17:27N 29°19' W 094°38'1112.7
2016-Jun-16 16:33N 29°25' W 094°49'1312.7
2016-Jun-16 15:33N 29°36' W 094°57'10 9.6
2016-Jun-16 14:33N 29°44' W 095°03'3 0.1
2016-Jun-15 09:33N 29°45' W 095°06'8 7.7
2016-Jun-15 08:33N 29°40' W 094°59'1313.2
2016-Jun-15 07:33N 29°29' W 094°51'28 4.0
2016-Jun-15 00:28N 29°07' W 094°30'  
Track history (hours):
 
Tides and Currents Weather Stations Pressure Air Temp Water Temp Dewpoint Dewpoint Depression Visibility Wind Speed Wind Dir Waves Ship Positions

Caletta

Last reported at 2016-Jun-21 20:33 UTC. Time now 2016-Jun-28 20:41 UTC.
Position N 29°43' W 093°52'.

Length 183 m; draft 7.7 m.

Type: Ship (hazmat cat A). MMSI: 247296300.

Date/timePositionNaut miles runAvg speedWind from/ knotsBaromVisibWave heightAir tempDewpointWater temp
2016-Jun-21 20:33N 29°43' W 093°52'10 0.8
2016-Jun-21 08:04N 29°35' W 093°44'0 0.1
2016-Jun-21 07:22N 29°35' W 093°44'0 0.0
2016-Jun-21 01:22N 29°35' W 093°44'0 0.0
2016-Jun-20 20:04N 29°35' W 093°44'0 0.1
2016-Jun-20 19:31N 29°35' W 093°44'0 0.0
2016-Jun-19 08:22N 29°35' W 093°44'0 0.0
2016-Jun-19 06:25N 29°35' W 093°44'0 0.0
2016-Jun-19 05:31N 29°35' W 093°44'0 0.0
2016-Jun-19 01:28N 29°35' W 093°44'0 0.1
2016-Jun-19 00:31N 29°35' W 093°44'0 0.1
2016-Jun-18 23:31N 29°35' W 093°44'0 0.0
2016-Jun-18 09:28N 29°35' W 093°44'0 0.0
2016-Jun-18 04:07N 29°35' W 093°44'0 0.0
2016-Jun-18 03:13N 29°35' W 093°44'0 0.0
2016-Jun-17 13:21N 29°35' W 093°44'0 0.0
2016-Jun-17 08:27N 29°35' W 093°44'0 0.0
2016-Jun-17 07:09N 29°35' W 093°44'0 0.0
2016-Jun-17 03:18N 29°35' W 093°44'0 0.0
2016-Jun-17 02:24N 29°35' W 093°44'0 0.0
2016-Jun-17 01:33N 29°35' W 093°44'0 0.0
2016-Jun-17 00:24N 29°35' W 093°44'0 0.0
2016-Jun-16 23:33N 29°35' W 093°44'0 0.0
2016-Jun-16 22:24N 29°35' W 093°44'3 3.6
2016-Jun-16 21:33N 29°32' W 093°45'1413.9
2016-Jun-16 20:33N 29°27' W 093°60'1414.3
2016-Jun-16 19:33N 29°17' W 094°12'1414.1
2016-Jun-16 18:33N 29°09' W 094°25'1513.6
2016-Jun-16 17:27N 29°19' W 094°38'1112.7
2016-Jun-16 16:33N 29°25' W 094°49'1312.7
2016-Jun-16 15:33N 29°36' W 094°57'10 9.6
2016-Jun-16 14:33N 29°44' W 095°03'3 0.1
2016-Jun-15 09:33N 29°45' W 095°06'8 7.7
2016-Jun-15 08:33N 29°40' W 094°59'1313.2
2016-Jun-15 07:33N 29°29' W 094°51'28 4.0
2016-Jun-15 00:28N 29°07' W 094°30'  

Dump ship's entire track history